5NC6 weather

Tarboro-Edgecombe County Heliport
Tarboro, North Carolina, United States

Public forecast

Using degrees Fahrenheit for public forecast. Weather courtesy of forecast.io.

Closest aviation weather report (METAR) to Tarboro-Edgecombe County Heliport

Report is more than 2 hours old.

Closest report is Tarboro Edgecombe Airport, 0.2 nm (0.3 km) ENE. Retrieved 2020/05/27 07:15 UTC (6 hours ago):

KETC 270715Z AUTO 07004KT 7SM OVC004 19/18 A3014 RMK AO2 T01860179

Closest aviation forecast (TAF) to Tarboro-Edgecombe County Heliport

Closest forecast is Rocky Mount Wilson Regional Airport, 17.3 nm (32.1 km) WSW. Retrieved 2020/05/27 12:22 UTC (37 minutes ago):

TAF KRWI 271120Z 2712/2812 04005KT P6SM OVC005 TEMPO 2715/2717 5SM -SHRA BKN008 OVC012 FM271700 06010G18KT 3SM -SHRA BR BKN008 OVC010 FM272000 07011G20KT 2SM SHRA BKN010 FM280000 13009KT 3SM -SHRA BKN008 OVC015